• Join FlightAware (Why Join?)
  • Login
  • US Flag 
Rudolph Flight #1: Arrived! 
11:09PM EST


 

Airport Tracker/Info


-or-


 

Live Flight TrackerFlight Track Log ✈ N960DL ✈ 21-Apr-2013 ✈ KCMH - KATL

Flight Track Log - Related Links

Times and Time Zones

All times are in EDT time to prevent confusion due to time zone crossing. See the N960DL flight status page for this flight to view local times or setup timezone preferences in your user account.

Time Position Orientation Groundspeed Altitude Reporting Facility
EDT Latitude Longitude Course Direction KTS MPH feet Rate Location/Type
06:07AM 40.0028 -82.9047 133° Southeast 134 154 1,300  Level Indianapolis Center
06:08AM 40.0053 -82.9658 273° West 206 237 3,400 3,000 Climbing Indianapolis Center
06:09AM 39.9808 -83.0422 247° West 255 293 7,300 3,660 Climbing Indianapolis Center
06:10AM 39.6902 -82.9727 173° South  Level Estimated
06:10AM 39.9011 -83.0236 170° South 288 331 10,900  Level Indianapolis Center
06:11AM 39.5876 -82.9995 171° South  Level Estimated
06:11AM 39.8025 -83.0106 174° South 353 406 12,400  Level Indianapolis Center
06:12AM 39.5165 -82.8997 133° Southeast  Level FlightAware Approximate
06:12AM 39.6908 -82.9986 175° South 394 453 15,600  Level Indianapolis Center
06:13AM 39.5758 -82.9839 174° South 406 467 18,100 2,520 Climbing Indianapolis Center
06:14AM 39.4575 -82.9686 174° South 418 481 20,700 2,580 Climbing Indianapolis Center
06:15AM 39.3358 -82.9539 175° South 431 496 23,400 2,160 Climbing Indianapolis Center
06:16AM 39.2136 -82.9403 175° South 436 502 25,100 2,340 Climbing Indianapolis Center
06:17AM 39.0878 -82.9256 175° South 442 509 28,100 2,460 Climbing Indianapolis Center
06:18AM 38.9711 -82.9111 175° South 425 489 30,100 1,980 Climbing Indianapolis Center
06:19AM 38.8539 -82.8975 175° South 423 487 32,200 1,680 Climbing Indianapolis Center
06:20AM 38.7408 -82.8833 174° South 411 473 33,600 1,080 Climbing Indianapolis Center
06:21AM 38.6361 -82.8708 175° South 410 472 34,400 900 Climbing Indianapolis Center
06:22AM 38.5222 -82.8575 175° South 409 471 35,400 780 Climbing Indianapolis Center
06:23AM 38.4078 -82.8442 175° South 413 475 36,000 240 Climbing Indianapolis Center
06:24AM 38.2928 -82.8319 175° South 414 476 36,000  Level Indianapolis Center
06:25AM 38.1794 -82.8197 175° South 409 471 36,000  Level Indianapolis Center
06:26AM 38.0669 -82.8100 176° South 405 466 36,000  Level Indianapolis Center
06:27AM 37.9536 -82.7969 175° South 407 468 36,000  Level Indianapolis Center
06:28AM 37.8389 -82.7836 175° South 411 473 36,000  Level Indianapolis Center
06:29AM 37.7261 -82.7717 175° South 407 468 36,000  Level Indianapolis Center
06:30AM 37.6136 -82.7703 179° South 401 461 36,000  Level Indianapolis Center
06:31AM 37.5039 -82.7892 188° South 396 456 36,000  Level Indianapolis Center
06:32AM 37.3769 -82.8083 187° South 395 455 36,000  Level Indianapolis Center
06:33AM 37.2675 -82.8244 187° South 394 453 36,000  Level Indianapolis Center
06:34AM 37.1586 -82.8419 187° South 394 453 36,000  Level Indianapolis Center
06:35AM 37.0500 -82.8592 187° South 392 451 36,000  Level Indianapolis Center
06:35AM 37.0347 -82.8636 193° South 388 447 36,000  Level Atlanta Center
06:36AM 36.9183 -82.8808 187° South 393 452 36,000  Level Atlanta Center
06:37AM 36.8383 -82.8917 186° South 399 459 36,000  Level Indianapolis Center
06:37AM 36.7975 -82.8981 187° South 403 464 36,000  Level Atlanta Center
06:38AM 36.6892 -82.9153 187° South 402 463 36,000  Level Atlanta Center
06:39AM 36.5808 -82.9322 187° South 397 457 36,000  Level Atlanta Center
06:40AM 36.4728 -82.9492 187° South 392 451 36,000  Level Atlanta Center
06:41AM 36.3644 -82.9661 187° South 392 451 36,000  Level Atlanta Center
06:42AM 36.2581 -82.9806 186° South 392 451 36,000  Level Atlanta Center
06:43AM 36.1478 -82.9947 186° South 392 451 36,000  Level Atlanta Center
06:44AM 36.0372 -83.0092 186° South 392 451 36,000  Level Atlanta Center
06:45AM 35.9289 -83.0258 187° South 397 457 36,000 -480 Level Atlanta Center
06:46AM 35.8206 -83.0528 191° South 397 457 35,100 -540 Descending Atlanta Center
06:47AM 35.7189 -83.1025 202° Southwest 397 457 35,000 -300 Descending Atlanta Center
06:48AM 35.6211 -83.1472 200° South 390 449 34,500 -1,020 Descending Atlanta Center
06:49AM 35.5192 -83.1942 201° Southwest 390 449 33,000 -1,620 Descending Atlanta Center
06:50AM 35.4319 -83.2358 201° Southwest 390 449 31,300 -1,920 Descending Atlanta Center
06:51AM 35.3319 -83.2828 201° Southwest 390 449 29,200 -2,100 Descending Atlanta Center
06:52AM 35.2281 -83.3319 201° Southwest 390 449 27,200 -1,980 Descending Atlanta Center
06:53AM 35.1281 -83.3758 200° South 390 449 25,300 -1,620 Descending Atlanta Center
06:54AM 35.0219 -83.4275 202° Southwest 396 456 24,000 -660 Descending Atlanta Center
06:55AM 34.9200 -83.4764 201° Southwest 396 456 24,000  Level Atlanta Center
06:56AM 34.8158 -83.5175 198° South 396 456 24,000  Level Atlanta Center
06:57AM 34.7158 -83.5686 203° Southwest 401 461 24,000  Level Atlanta Center
06:58AM 34.6094 -83.6147 200° South 393 452 24,000 -1,020 Level Atlanta Center
06:59AM 34.5053 -83.6633 201° Southwest 393 452 22,000 -2,640 Descending Atlanta Center
07:00AM 34.4094 -83.7217 207° Southwest 393 452 18,800 -2,880 Descending Atlanta Center
07:01AM 34.3117 -83.7797 206° Southwest 393 452 16,300 -2,400 Descending Atlanta Center
07:02AM 34.2197 -83.8353 207° Southwest 381 438 14,000 -1,200 Descending Atlanta Center
07:03AM 34.1156 -83.8983 207° Southwest 381 438 14,000 -360 Level Atlanta Center
07:04AM 34.0667 -83.9333 211° Southwest 373 429 13,500 -1,320 Descending Atlanta TRACON
07:05AM 33.9667 -83.9833 203° Southwest 368 423 12,000 -840 Descending Atlanta TRACON
07:06AM 33.9000 -84.0500 220° Southwest 364 419 12,000  Level Atlanta TRACON
07:06AM 33.8569 -84.0914 219° Southwest 371 427 12,000  Level Atlanta Center
07:07AM 33.8000 -84.1333 211° Southwest 367 422 12,000  Level Atlanta TRACON
07:08AM 33.7333 -84.2167 226° Southwest 360 414 12,000 -720 Level Atlanta TRACON
07:10AM 33.7333 -84.4167 270° West 253 291 9,900 -1,620 Descending Atlanta TRACON
07:11AM 33.7333 -84.5000 270° West 242 278 7,100 -2,280 Descending Atlanta TRACON
07:12AM 33.7333 -84.5833 270° West 273 314 5,400 -1,080 Descending Atlanta TRACON
07:13AM 33.7333 -84.6667 270° West 241 277 5,000 -360 Descending Atlanta TRACON
07:14AM 33.7000 -84.6833 203° Southwest 191 220 4,800 -540 Descending Atlanta TRACON
07:15AM 33.6667 -84.6333 129° Southeast 174 200 4,000 -480 Descending Atlanta TRACON
07:16AM 33.6500 -84.5833 112° Southeast 179 206 3,900 -480 Descending Atlanta TRACON
07:17AM 33.6500 -84.5333 90° East 142 163 3,100 -840 Descending Atlanta TRACON